Wetterdaten: Mittwoch, 27.01.2010
Datum Zeit Temp. A. Feuchte A. Luftdruck Regen Wind Richtung Richtung Sonnenschein UV Solar Windben
27.01.2010 00:00 -13,2 C 81 % 1039,8 hPa 0,0 mm 0,0 km/h (0 Bft) N 0 0 min 0 UV-I 0 W/m 0,0 km/h (0 Bft)
27.01.2010 00:10 -13,3 C 81 % 1039,6 hPa 0,0 mm 0,0 km/h (0 Bft) N 0 0 min 0 UV-I 0 W/m 0,0 km/h (0 Bft)
27.01.2010 00:20 -13,4 C 81 % 1039,5 hPa 0,0 mm 0,0 km/h (0 Bft) N 0 0 min 0 UV-I 0 W/m 0,0 km/h (0 Bft)
27.01.2010 00:30 -13,6 C 81 % 1039,3 hPa 0,0 mm 0,0 km/h (0 Bft) N 0 0 min 0 UV-I 0 W/m 0,0 km/h (0 Bft)
27.01.2010 00:40 -13,7 C 81 % 1039,3 hPa 0,0 mm 0,0 km/h (0 Bft) N 0 0 min 0 UV-I 0 W/m 0,0 km/h (0 Bft)
27.01.2010 00:50 -13,7 C 81 % 1039,2 hPa 0,0 mm 0,0 km/h (0 Bft) N 0 0 min 0 UV-I 0 W/m 0,0 km/h (0 Bft)
27.01.2010 01:00 -13,8 C 82 % 1039,0 hPa 0,0 mm 0,0 km/h (0 Bft) N-NW 337 0 min 0 UV-I 0 W/m 1,6 km/h (1 Bft)
27.01.2010 01:10 -13,9 C 82 % 1038,8 hPa 0,0 mm 0,0 km/h (0 Bft) N 0 0 min 0 UV-I 0 W/m 0,0 km/h (0 Bft)
27.01.2010 01:20 -14,0 C 82 % 1038,7 hPa 0,0 mm 0,0 km/h (0 Bft) N 0 0 min 0 UV-I 0 W/m 0,0 km/h (0 Bft)
27.01.2010 01:30 -14,1 C 82 % 1038,6 hPa 0,0 mm 0,0 km/h (0 Bft) N 0 0 min 0 UV-I 0 W/m 0,0 km/h (0 Bft)
27.01.2010 01:40 -14,2 C 82 % 1038,6 hPa 0,0 mm 0,0 km/h (0 Bft) N 0 0 min 0 UV-I 0 W/m 0,0 km/h (0 Bft)
27.01.2010 01:50 -14,2 C 82 % 1038,5 hPa 0,0 mm 0,0 km/h (0 Bft) N 0 0 min 0 UV-I 0 W/m 0,0 km/h (0 Bft)
27.01.2010 02:00 -14,3 C 82 % 1038,4 hPa 0,0 mm 0,0 km/h (0 Bft) N 0 0 min 0 UV-I 0 W/m 0,0 km/h (0 Bft)
27.01.2010 02:10 -14,3 C 82 % 1038,2 hPa 0,0 mm 0,0 km/h (0 Bft) N-NW 337 0 min 0 UV-I 0 W/m 1,6 km/h (1 Bft)
27.01.2010 02:20 -14,4 C 82 % 1038,1 hPa 0,0 mm 0,0 km/h (0 Bft) N 0 0 min 0 UV-I 0 W/m 0,0 km/h (0 Bft)
27.01.2010 02:30 -14,4 C 82 % 1038,0 hPa 0,0 mm 0,0 km/h (0 Bft) N 0 0 min 0 UV-I 0 W/m 0,0 km/h (0 Bft)
27.01.2010 02:40 -14,6 C 82 % 1038,1 hPa 0,0 mm 0,0 km/h (0 Bft) N 0 0 min 0 UV-I 0 W/m 0,0 km/h (0 Bft)
27.01.2010 02:50 -14,6 C 82 % 1037,8 hPa 0,0 mm 0,0 km/h (0 Bft) N 0 0 min 0 UV-I 0 W/m 0,0 km/h (0 Bft)
27.01.2010 03:00 -14,7 C 82 % 1037,7 hPa 0,0 mm 0,0 km/h (0 Bft) N 0 0 min 0 UV-I 0 W/m 0,0 km/h (0 Bft)
27.01.2010 03:10 -14,7 C 83 % 1037,7 hPa 0,0 mm 0,0 km/h (0 Bft) N 0 0 min 0 UV-I 0 W/m 0,0 km/h (0 Bft)
27.01.2010 03:20 -14,6 C 83 % 1037,5 hPa 0,0 mm 0,0 km/h (0 Bft) N-NW 337 0 min 0 UV-I 0 W/m 1,6 km/h (1 Bft)
27.01.2010 03:30 -14,4 C 83 % 1037,3 hPa 0,0 mm 0,0 km/h (0 Bft) N 0 0 min 0 UV-I 0 W/m 0,0 km/h (0 Bft)
27.01.2010 03:40 -14,3 C 83 % 1037,3 hPa 0,0 mm 0,0 km/h (0 Bft) N 0 0 min 0 UV-I 0 W/m 0,0 km/h (0 Bft)
27.01.2010 03:50 -14,2 C 83 % 1037,1 hPa 0,0 mm 0,0 km/h (0 Bft) N 0 0 min 0 UV-I 0 W/m 0,0 km/h (0 Bft)
27.01.2010 04:00 -14,1 C 84 % 1037,0 hPa 0,0 mm 0,0 km/h (0 Bft) N 0 0 min 0 UV-I 0 W/m 0,0 km/h (0 Bft)
27.01.2010 04:10 -13,9 C 84 % 1036,8 hPa 0,0 mm 0,0 km/h (0 Bft) N 0 0 min 0 UV-I 0 W/m 0,0 km/h (0 Bft)
27.01.2010 04:20 -13,8 C 84 % 1036,5 hPa 0,0 mm 0,0 km/h (0 Bft) N 0 0 min 0 UV-I 0 W/m 0,0 km/h (0 Bft)
27.01.2010 04:30 -13,7 C 84 % 1036,4 hPa 0,0 mm 0,0 km/h (0 Bft) N-NW 337 0 min 0 UV-I 0 W/m 3,2 km/h (1 Bft)
27.01.2010 04:40 -13,4 C 85 % 1036,2 hPa 0,0 mm 0,0 km/h (0 Bft) N-NW 337 0 min 0 UV-I 0 W/m 1,6 km/h (1 Bft)
27.01.2010 04:50 -13,2 C 85 % 1036,2 hPa 0,0 mm 0,0 km/h (0 Bft) N-NW 337 0 min 0 UV-I 0 W/m 3,2 km/h (1 Bft)
27.01.2010 05:00 -12,9 C 85 % 1036,1 hPa 0,0 mm 0,0 km/h (0 Bft) N-NW 337 0 min 0 UV-I 0 W/m 3,2 km/h (1 Bft)
27.01.2010 05:10 -12,8 C 85 % 1036,0 hPa 0,0 mm 0,0 km/h (0 Bft) N-NW 337 0 min 0 UV-I 0 W/m 3,2 km/h (1 Bft)
27.01.2010 05:20 -12,7 C 85 % 1035,9 hPa 0,0 mm 0,0 km/h (0 Bft) N 0 0 min 0 UV-I 0 W/m 0,0 km/h (0 Bft)
27.01.2010 05:30 -12,7 C 85 % 1035,6 hPa 0,0 mm 0,0 km/h (0 Bft) N-NW 337 0 min 0 UV-I 0 W/m 1,6 km/h (1 Bft)
27.01.2010 05:40 -12,7 C 85 % 1035,4 hPa 0,0 mm 0,0 km/h (0 Bft) N-NW 337 0 min 0 UV-I 0 W/m 1,6 km/h (1 Bft)
27.01.2010 05:50 -12,6 C 85 % 1035,2 hPa 0,0 mm 0,0 km/h (0 Bft) N-NW 337 0 min 0 UV-I 0 W/m 1,6 km/h (1 Bft)
27.01.2010 06:00 -12,5 C 85 % 1035,0 hPa 0,0 mm 0,0 km/h (0 Bft) N-NW 337 0 min 0 UV-I 0 W/m 1,6 km/h (1 Bft)
27.01.2010 06:10 -12,3 C 85 % 1034,9 hPa 0,0 mm 0,0 km/h (0 Bft) N 0 0 min 0 UV-I 0 W/m 0,0 km/h (0 Bft)
27.01.2010 06:20 -12,2 C 86 % 1034,8 hPa 0,0 mm 0,0 km/h (0 Bft) N-NW 337 0 min 0 UV-I 0 W/m 1,6 km/h (1 Bft)
27.01.2010 06:30 -12,1 C 86 % 1034,7 hPa 0,0 mm 0,0 km/h (0 Bft) N 0 0 min 0 UV-I 0 W/m 0,0 km/h (0 Bft)
27.01.2010 06:40 -11,9 C 86 % 1034,7 hPa 0,0 mm 0,0 km/h (0 Bft) N-NW 337 0 min 0 UV-I 0 W/m 1,6 km/h (1 Bft)
27.01.2010 06:50 -11,8 C 86 % 1034,6 hPa 0,0 mm 0,0 km/h (0 Bft) N-NW 337 0 min 0 UV-I 0 W/m 1,6 km/h (1 Bft)
27.01.2010 07:00 -11,7 C 86 % 1034,4 hPa 0,0 mm 0,0 km/h (0 Bft) N-NW 337 0 min 0 UV-I 0 W/m 1,6 km/h (1 Bft)
27.01.2010 07:10 -11,6 C 86 % 1034,3 hPa 0,0 mm 0,0 km/h (0 Bft) N 0 0 min 0 UV-I 0 W/m 0,0 km/h (0 Bft)
27.01.2010 07:20 -11,5 C 86 % 1034,1 hPa 0,0 mm 0,0 km/h (0 Bft) N 0 0 min 0 UV-I 0 W/m 0,0 km/h (0 Bft)
27.01.2010 07:30 -11,4 C 86 % 1034,0 hPa 0,0 mm 0,0 km/h (0 Bft) N 0 0 min 0 UV-I 0 W/m 0,0 km/h (0 Bft)
27.01.2010 07:40 -11,3 C 86 % 1033,8 hPa 0,0 mm 0,0 km/h (0 Bft) N-NW 337 0 min 0 UV-I 0 W/m 1,6 km/h (1 Bft)
27.01.2010 07:50 -11,3 C 86 % 1033,5 hPa 0,0 mm 0,0 km/h (0 Bft) N 0 0 min 0 UV-I 0 W/m 0,0 km/h (0 Bft)
27.01.2010 08:00 -11,2 C 86 % 1033,4 hPa 0,0 mm 0,0 km/h (0 Bft) N-NW 340 0 min 0 UV-I 0 W/m 0,0 km/h (0 Bft)
27.01.2010 08:10 -11,1 C 86 % 1033,4 hPa 0,0 mm 0,0 km/h (0 Bft) N 0 0 min 0 UV-I 0 W/m 0,0 km/h (0 Bft)
27.01.2010 08:20 -11,0 C 86 % 1033,3 hPa 0,0 mm 0,0 km/h (0 Bft) N-NW 337 0 min 0 UV-I 0 W/m 1,6 km/h (1 Bft)
27.01.2010 08:30 -10,9 C 86 % 1033,1 hPa 0,0 mm 0,0 km/h (0 Bft) N 0 0 min 0 UV-I 9 W/m 0,0 km/h (0 Bft)
27.01.2010 08:40 -10,8 C 86 % 1032,9 hPa 0,0 mm 0,0 km/h (0 Bft) N 0 0 min 0 UV-I 18 W/m 0,0 km/h (0 Bft)
27.01.2010 08:50 -10,6 C 86 % 1032,7 hPa 0,0 mm 0,0 km/h (0 Bft) N 0 0 min 0 UV-I 18 W/m 0,0 km/h (0 Bft)
27.01.2010 09:00 -10,4 C 86 % 1032,4 hPa 0,0 mm 0,0 km/h (0 Bft) N 0 0 min 0 UV-I 19 W/m 0,0 km/h (0 Bft)
27.01.2010 09:10 -10,3 C 86 % 1032,2 hPa 0,0 mm 0,0 km/h (0 Bft) N 0 0 min 0 UV-I 32 W/m 0,0 km/h (0 Bft)
27.01.2010 09:20 -10,1 C 87 % 1032,0 hPa 0,0 mm 0,0 km/h (0 Bft) N 0 0 min 0 UV-I 35 W/m 0,0 km/h (0 Bft)
27.01.2010 09:30 -9,9 C 87 % 1031,8 hPa 0,0 mm 0,0 km/h (0 Bft) N 0 0 min 0 UV-I 46 W/m 0,0 km/h (0 Bft)
27.01.2010 09:40 -9,7 C 87 % 1031,5 hPa 0,0 mm 0,0 km/h (0 Bft) N-NW 337 0 min 0 UV-I 62 W/m 1,6 km/h (1 Bft)
27.01.2010 09:50 -9,3 C 87 % 1031,4 hPa 0,0 mm 0,0 km/h (0 Bft) N-NW 337 0 min 0 UV-I 79 W/m 1,6 km/h (1 Bft)
27.01.2010 10:00 -9,1 C 87 % 1031,5 hPa 0,0 mm 0,0 km/h (0 Bft) N-NW 337 0 min 0 UV-I 77 W/m 3,2 km/h (1 Bft)
27.01.2010 10:10 -8,8 C 87 % 1031,3 hPa 0,0 mm 0,0 km/h (0 Bft) N-NW 337 0 min 0 UV-I 97 W/m 3,2 km/h (1 Bft)
27.01.2010 10:20 -8,5 C 87 % 1031,1 hPa 0,0 mm 0,0 km/h (0 Bft) N-NW 337 0 min 0 UV-I 84 W/m 1,6 km/h (1 Bft)
27.01.2010 10:30 -8,3 C 88 % 1030,5 hPa 0,0 mm 0,0 km/h (0 Bft) N-NW 337 0 min 0 UV-I 76 W/m 3,2 km/h (1 Bft)
27.01.2010 10:40 -8,1 C 88 % 1030,3 hPa 0,0 mm 0,0 km/h (0 Bft) N-NW 337 0 min 0 UV-I 97 W/m 1,6 km/h (1 Bft)
27.01.2010 10:50 -7,8 C 88 % 1030,1 hPa 0,0 mm 0,0 km/h (0 Bft) N 0 0 min 0 UV-I 134 W/m 0,0 km/h (0 Bft)
27.01.2010 11:00 -7,4 C 88 % 1029,9 hPa 0,0 mm 0,0 km/h (0 Bft) N-NW 337 0 min 0 UV-I 135 W/m 3,2 km/h (1 Bft)
27.01.2010 11:10 -7,1 C 88 % 1029,3 hPa 0,0 mm 0,0 km/h (0 Bft) N-NW 337 0 min 1 UV-I 151 W/m 1,6 km/h (1 Bft)
27.01.2010 11:20 -6,8 C 88 % 1029,3 hPa 0,0 mm 0,0 km/h (0 Bft) N-NW 337 10 min 1 UV-I 183 W/m 3,2 km/h (1 Bft)
27.01.2010 11:30 -6,4 C 88 % 1028,9 hPa 0,0 mm 0,0 km/h (0 Bft) N-NW 337 0 min 1 UV-I 165 W/m 3,2 km/h (1 Bft)
27.01.2010 11:40 -6,0 C 88 % 1028,6 hPa 0,0 mm 0,0 km/h (0 Bft) N-NW 337 0 min 1 UV-I 174 W/m 4,8 km/h (1 Bft)
27.01.2010 11:50 -5,6 C 87 % 1028,2 hPa 0,0 mm 0,0 km/h (0 Bft) NW 315 0 min 1 UV-I 165 W/m 3,2 km/h (1 Bft)
27.01.2010 12:00 -5,4 C 85 % 1028,1 hPa 0,0 mm 1,6 km/h (1 Bft) NW 315 0 min 1 UV-I 158 W/m 6,4 km/h (2 Bft)
27.01.2010 12:10 -5,2 C 84 % 1028,2 hPa 0,0 mm 1,6 km/h (1 Bft) W-NW 292 0 min 1 UV-I 158 W/m 4,8 km/h (1 Bft)
27.01.2010 12:20 -5,1 C 83 % 1027,9 hPa 0,0 mm 0,0 km/h (0 Bft) W-NW 292 0 min 1 UV-I 183 W/m 3,2 km/h (1 Bft)
27.01.2010 12:30 -4,8 C 83 % 1027,5 hPa 0,0 mm 0,0 km/h (0 Bft) W-NW 292 10 min 1 UV-I 225 W/m 4,8 km/h (1 Bft)
27.01.2010 12:40 -4,4 C 81 % 1027,3 hPa 0,0 mm 0,0 km/h (0 Bft) W-NW 292 10 min 1 UV-I 206 W/m 4,8 km/h (1 Bft)
27.01.2010 12:50 -4,1 C 79 % 1027,2 hPa 0,0 mm 0,0 km/h (0 Bft) W-NW 292 10 min 1 UV-I 193 W/m 4,8 km/h (1 Bft)
27.01.2010 13:00 -3,9 C 78 % 1026,9 hPa 0,0 mm 0,0 km/h (0 Bft) W-NW 292 0 min 1 UV-I 158 W/m 1,6 km/h (1 Bft)
27.01.2010 13:10 -3,7 C 77 % 1026,3 hPa 0,0 mm 0,0 km/h (0 Bft) W-NW 292 10 min 1 UV-I 202 W/m 3,2 km/h (1 Bft)
27.01.2010 13:20 -3,5 C 76 % 1026,1 hPa 0,0 mm 0,0 km/h (0 Bft) W-NW 292 0 min 1 UV-I 172 W/m 3,2 km/h (1 Bft)
27.01.2010 13:30 -3,4 C 75 % 1025,6 hPa 0,0 mm 0,0 km/h (0 Bft) W-NW 292 0 min 1 UV-I 153 W/m 3,2 km/h (1 Bft)
27.01.2010 13:40 -3,3 C 73 % 1025,4 hPa 0,0 mm 1,6 km/h (1 Bft) W-NW 292 0 min 1 UV-I 127 W/m 4,8 km/h (1 Bft)
27.01.2010 13:50 -3,3 C 73 % 1025,1 hPa 0,3 mm 0,0 km/h (0 Bft) W-NW 292 0 min 1 UV-I 116 W/m 3,2 km/h (1 Bft)
27.01.2010 14:00 -3,3 C 73 % 1024,6 hPa 0,0 mm 0,0 km/h (0 Bft) W-NW 292 0 min 1 UV-I 121 W/m 3,2 km/h (1 Bft)
27.01.2010 14:10 -3,2 C 72 % 1024,1 hPa 0,0 mm 0,0 km/h (0 Bft) W-NW 292 0 min 0 UV-I 111 W/m 4,8 km/h (1 Bft)
27.01.2010 14:20 -3,2 C 72 % 1023,6 hPa 0,0 mm 0,0 km/h (0 Bft) W-NW 292 0 min 0 UV-I 105 W/m 4,8 km/h (1 Bft)
27.01.2010 14:30 -3,2 C 72 % 1023,1 hPa 0,0 mm 1,6 km/h (1 Bft) SW 225 0 min 1 UV-I 134 W/m 6,4 km/h (2 Bft)
27.01.2010 14:40 -3,1 C 73 % 1022,5 hPa 0,0 mm 1,6 km/h (1 Bft) SW 225 0 min 1 UV-I 142 W/m 8,0 km/h (2 Bft)
27.01.2010 14:50 -3,0 C 73 % 1021,9 hPa 0,0 mm 1,6 km/h (1 Bft) SW 225 10 min 0 UV-I 149 W/m 8,0 km/h (2 Bft)
27.01.2010 15:00 -2,8 C 73 % 1021,5 hPa 0,0 mm 1,6 km/h (1 Bft) S-SW 202 10 min 0 UV-I 130 W/m 9,7 km/h (2 Bft)
27.01.2010 15:10 -2,6 C 72 % 1021,1 hPa 0,0 mm 1,6 km/h (1 Bft) SW 225 0 min 0 UV-I 98 W/m 8,0 km/h (2 Bft)
27.01.2010 15:20 -2,4 C 71 % 1021,0 hPa 0,0 mm 1,6 km/h (1 Bft) W-SW 247 0 min 0 UV-I 93 W/m 8,0 km/h (2 Bft)
27.01.2010 15:30 -2,3 C 70 % 1020,4 hPa 0,0 mm 3,2 km/h (1 Bft) SW 225 0 min 0 UV-I 84 W/m 11,3 km/h (2 Bft)
27.01.2010 15:40 -2,2 C 69 % 1020,2 hPa 0,0 mm 3,2 km/h (1 Bft) SW 225 0 min 0 UV-I 83 W/m 8,0 km/h (2 Bft)
27.01.2010 15:50 -2,1 C 66 % 1020,1 hPa 0,0 mm 6,4 km/h (2 Bft) SW 225 0 min 0 UV-I 60 W/m 19,3 km/h (3 Bft)
27.01.2010 16:00 -2,0 C 64 % 1019,7 hPa 0,0 mm 4,8 km/h (1 Bft) SW 225 0 min 0 UV-I 35 W/m 17,7 km/h (3 Bft)
27.01.2010 16:10 -1,9 C 63 % 1019,3 hPa 0,0 mm 6,4 km/h (2 Bft) S-SW 202 0 min 0 UV-I 30 W/m 17,7 km/h (3 Bft)
27.01.2010 16:20 -1,8 C 62 % 1018,5 hPa 0,0 mm 6,4 km/h (2 Bft) SW 225 0 min 0 UV-I 25 W/m 19,3 km/h (3 Bft)
27.01.2010 16:30 -1,7 C 60 % 1018,5 hPa 0,0 mm 6,4 km/h (2 Bft) SW 225 0 min 0 UV-I 23 W/m 16,1 km/h (3 Bft)
27.01.2010 16:40 -1,7 C 60 % 1018,3 hPa 0,0 mm 4,8 km/h (1 Bft) SW 225 0 min 0 UV-I 12 W/m 16,1 km/h (3 Bft)
27.01.2010 16:50 -1,6 C 58 % 1018,0 hPa 0,0 mm 6,4 km/h (2 Bft) W-SW 247 0 min 0 UV-I 9 W/m 17,7 km/h (3 Bft)
27.01.2010 17:00 -1,6 C 58 % 1017,9 hPa 0,0 mm 4,8 km/h (1 Bft) W-SW 247 0 min 0 UV-I 0 W/m 17,7 km/h (3 Bft)
27.01.2010 17:10 -1,6 C 56 % 1017,7 hPa 0,0 mm 4,8 km/h (1 Bft) W-SW 247 0 min 0 UV-I 0 W/m 17,7 km/h (3 Bft)
27.01.2010 17:20 -1,5 C 56 % 1017,2 hPa 0,0 mm 6,4 km/h (2 Bft) W-SW 247 0 min 0 UV-I 0 W/m 19,3 km/h (3 Bft)
27.01.2010 17:30 -1,4 C 55 % 1016,9 hPa 0,0 mm 6,4 km/h (2 Bft) W-SW 247 0 min 0 UV-I 0 W/m 17,7 km/h (3 Bft)
27.01.2010 17:40 -1,4 C 55 % 1016,4 hPa 0,0 mm 6,4 km/h (2 Bft) SW 225 0 min 0 UV-I 0 W/m 19,3 km/h (3 Bft)
27.01.2010 17:50 -1,4 C 56 % 1015,8 hPa 0,0 mm 6,4 km/h (2 Bft) W-SW 247 0 min 0 UV-I 0 W/m 19,3 km/h (3 Bft)
27.01.2010 18:00 -1,4 C 57 % 1015,5 hPa 0,0 mm 4,8 km/h (1 Bft) SW 225 0 min 0 UV-I 0 W/m 17,7 km/h (3 Bft)
27.01.2010 18:10 -1,4 C 58 % 1015,2 hPa 0,0 mm 6,4 km/h (2 Bft) W-SW 238 0 min 0 UV-I 0 W/m 19,3 km/h (3 Bft)
27.01.2010 18:20 -1,4 C 58 % 1014,9 hPa 0,0 mm 5,0 km/h (1 Bft) W 275 0 min 0 UV-I 0 W/m 20,9 km/h (4 Bft)
27.01.2010 18:30 -1,4 C 59 % 1014,6 hPa 0,0 mm 6,6 km/h (2 Bft) W 277 0 min 0 UV-I 0 W/m 22,5 km/h (4 Bft)
27.01.2010 18:40 -1,2 C 60 % 1014,2 hPa 0,0 mm 11,7 km/h (2 Bft) S-SW 205 0 min 0 UV-I 0 W/m 30,6 km/h (5 Bft)
27.01.2010 18:50 -1,1 C 62 % 1013,8 hPa 0,0 mm 9,0 km/h (2 Bft) S-SW 213 0 min 0 UV-I 0 W/m 20,9 km/h (4 Bft)
27.01.2010 19:00 -1,1 C 66 % 1013,8 hPa 0,0 mm 15,5 km/h (3 Bft) SW 229 0 min 0 UV-I 0 W/m 35,4 km/h (5 Bft)
27.01.2010 19:10 -1,1 C 73 % 1013,6 hPa 0,0 mm 19,0 km/h (3 Bft) W-NW 283 0 min 0 UV-I 0 W/m 37,0 km/h (5 Bft)
27.01.2010 19:20 -1,4 C 78 % 1013,5 hPa 0,0 mm 16,1 km/h (3 Bft) W 269 0 min 0 UV-I 0 W/m 41,8 km/h (6 Bft)
27.01.2010 19:30 -1,7 C 80 % 1013,2 hPa 0,0 mm 11,6 km/h (2 Bft) S-SW 213 0 min 0 UV-I 0 W/m 27,4 km/h (4 Bft)
27.01.2010 19:40 -1,8 C 82 % 1012,9 hPa 0,0 mm 12,6 km/h (3 Bft) W-NW 291 0 min 0 UV-I 0 W/m 30,6 km/h (5 Bft)
27.01.2010 19:50 -1,8 C 83 % 1012,4 hPa 0,0 mm 17,1 km/h (3 Bft) W 266 0 min 0 UV-I 0 W/m 37,0 km/h (5 Bft)
27.01.2010 20:00 -1,8 C 84 % 1012,1 hPa 0,0 mm 15,6 km/h (3 Bft) SW 223 0 min 0 UV-I 0 W/m 33,8 km/h (5 Bft)
27.01.2010 20:10 -1,8 C 84 % 1011,9 hPa 0,0 mm 15,2 km/h (3 Bft) W 265 0 min 0 UV-I 0 W/m 29,0 km/h (5 Bft)
27.01.2010 20:20 -1,8 C 85 % 1011,6 hPa 0,0 mm 12,8 km/h (3 Bft) W-SW 244 0 min 0 UV-I 0 W/m 33,8 km/h (5 Bft)
27.01.2010 20:30 -1,8 C 85 % 1011,0 hPa 0,0 mm 12,4 km/h (3 Bft) W 279 0 min 0 UV-I 0 W/m 29,0 km/h (5 Bft)
27.01.2010 20:40 -1,8 C 85 % 1010,8 hPa 0,0 mm 16,3 km/h (3 Bft) W 275 0 min 0 UV-I 0 W/m 33,8 km/h (5 Bft)
27.01.2010 20:50 -1,8 C 86 % 1010,4 hPa 0,0 mm 11,7 km/h (2 Bft) W-SW 241 0 min 0 UV-I 0 W/m 25,7 km/h (4 Bft)
27.01.2010 21:00 -1,9 C 87 % 1010,2 hPa 0,0 mm 11,9 km/h (2 Bft) W 263 0 min 0 UV-I 0 W/m 25,7 km/h (4 Bft)
27.01.2010 21:10 -2,0 C 87 % 1009,9 hPa 0,0 mm 13,1 km/h (3 Bft) W 281 0 min 0 UV-I 0 W/m 25,7 km/h (4 Bft)
27.01.2010 21:20 -2,0 C 88 % 1009,6 hPa 0,0 mm 10,8 km/h (2 Bft) W-SW 248 0 min 0 UV-I 0 W/m 27,4 km/h (4 Bft)
27.01.2010 21:30 -2,0 C 89 % 1009,5 hPa 0,0 mm 11,0 km/h (2 Bft) W 268 0 min 0 UV-I 0 W/m 33,8 km/h (5 Bft)
27.01.2010 21:40 -2,0 C 89 % 1009,2 hPa 0,0 mm 10,1 km/h (2 Bft) W-SW 248 0 min 0 UV-I 0 W/m 30,6 km/h (5 Bft)
27.01.2010 21:50 -1,9 C 89 % 1009,1 hPa 0,0 mm 9,6 km/h (2 Bft) SW 230 0 min 0 UV-I 0 W/m 25,7 km/h (4 Bft)
27.01.2010 22:00 -1,9 C 89 % 1008,8 hPa 0,0 mm 7,7 km/h (2 Bft) W-SW 255 0 min 0 UV-I 0 W/m 17,7 km/h (3 Bft)
27.01.2010 22:10 -1,8 C 90 % 1008,5 hPa 0,0 mm 8,0 km/h (2 Bft) W 269 0 min 0 UV-I 0 W/m 24,1 km/h (4 Bft)
27.01.2010 22:20 -1,8 C 90 % 1008,3 hPa 0,0 mm 7,1 km/h (2 Bft) W-SW 244 0 min 0 UV-I 0 W/m 24,1 km/h (4 Bft)
27.01.2010 22:30 -1,7 C 90 % 1007,4 hPa 0,0 mm 12,1 km/h (2 Bft) W 264 0 min 0 UV-I 0 W/m 25,7 km/h (4 Bft)
27.01.2010 22:40 -1,6 C 91 % 1007,5 hPa 0,0 mm 10,5 km/h (2 Bft) W-SW 245 0 min 0 UV-I 0 W/m 22,5 km/h (4 Bft)
27.01.2010 22:50 -1,6 C 91 % 1007,1 hPa 0,0 mm 8,2 km/h (2 Bft) W 273 0 min 0 UV-I 0 W/m 19,3 km/h (3 Bft)
27.01.2010 23:00 -1,4 C 91 % 1006,9 hPa 0,0 mm 9,7 km/h (2 Bft) SW 214 0 min 0 UV-I 0 W/m 22,5 km/h (4 Bft)
27.01.2010 23:10 -1,3 C 91 % 1006,7 hPa 0,0 mm 11,3 km/h (2 Bft) W-SW 247 0 min 0 UV-I 0 W/m 25,7 km/h (4 Bft)
27.01.2010 23:20 -1,2 C 91 % 1006,4 hPa 0,0 mm 11,3 km/h (2 Bft) W-SW 247 0 min 0 UV-I 0 W/m 29,0 km/h (5 Bft)
27.01.2010 23:30 -1,1 C 91 % 1006,1 hPa 0,0 mm 12,9 km/h (3 Bft) W-SW 247 0 min 0 UV-I 0 W/m 29,0 km/h (5 Bft)
27.01.2010 23:40 -0,9 C 91 % 1005,8 hPa 0,0 mm 14,5 km/h (3 Bft) W 270 0 min 0 UV-I 0 W/m 35,4 km/h (5 Bft)
27.01.2010 23:50 -0,8 C 92 % 1005,6 hPa 0,0 mm 11,3 km/h (2 Bft) W-SW 247 0 min 0 UV-I 0 W/m 24,1 km/h (4 Bft)
_ Min-Zeit 02:50 17:30 23:50 - 00:00 - - - - - 00:00
Minimum _ -14,7 C 55 % 1005,6 hPa - 0,0 km/h (0 Bft) - - - - - 0,0 km/h (0 Bft)
_ Max-Zeit 23:50 23:50 00:00 13:50 19:10 - - 11:20 12:20 12:30 19:20
Maximum _ -0,7 C 92 % 1039,8 hPa 0,3 mm 19,0 km/h
W-NW (3 Bft)
- - 10 min 1 UV-I 225 W/m 41,8 km/h
W-SW (6 Bft)
Durchschnitt _ -7,0 C 80 % 1025,7 hPa #0,3 mm 3,5 km/h (1 Bft) W-SW - #1:10 h 1 UV-I 105 W/m 9,9 km/h (2 Bft)